SEKCJA WYDRUKÓW, pokaż »

METAR EPBY 070030Z 27009KT 9999 -RA OVC003 02/02 Q1008=

METAR EPGD 070030Z 25004KT 8000 OVC003 01/01 Q1006 =

METAR EPKK 070030Z 25009KT 9999 FEW008 BKN017 02/01 Q1011 =

METAR EPKT 070030Z 24008KT 3300 -SN BR OVC003 00/00 Q1010 =

METAR EPLB 070030Z 23007KT 5000 -SNRA BR BKN003 02/01 Q1009 =

METAR EPLL 070030Z 25006KT 3900 -RA BR BKN003 01/01 Q1009 =

METAR EPML 070030Z NIL=

METAR EPMO 070030Z 19003KT 1200 R08/1000D -RA BR OVC005 00/00 Q1008 =

METAR EPPO 070030Z 28010KT 4900 BR OVC002 02/02 Q1010 =

METAR EPRA 070030Z NIL=

METAR EPRZ 070030Z 23009KT 9999 OVC009 02/01 Q1011 =

METAR EPSC 070030Z 26007KT 9999 BKN004 BKN014 02/01 Q1010 =

METAR EPSY 070030Z VRB01KT 3000 -SN BR OVC002 M00/M00 Q1007=

METAR EPWA 070030Z 24003KT 4000 -RASN BR BKN003 BKN007 01/01 Q1008
NOSIG=

METAR EPWR 070030Z 28010KT 250V310 9999 -RA SCT008 BKN012 02/01 Q1012
=

METAR EPZG 070030Z NIL=
 METAR EPRZ
Lokalizacja:EPRZ Rzeszów Jasionka
Czas:00:30 UTC
Średni kierunek wiatru:230 °
Średnia prędkość wiatru:9 węzłów
Widzialność:10 km i więcej
Pierwsza warstwa chmur:8/8, wysokość podstawy 900 FT
Temperatura powietrza:2 °C
Temperatura punktu rosy:1 °C
Ciśnienie QNH:1011 hPa